<?xml version="1.0" encoding="UTF-8" standalone="no" ?>
<gpx xmlns="http://www.topografix.com/GPX/1/1" xmlns:xsi="http://www.w3.org/2001/XMLSchema-instance" xsi:schemaLocation="http://www.topografix.com/GPX/1/1 http://www.topografix.com/GPX/1/1/gpx.xsd" version="1.1" creator="VisuGPX - https://www.visugpx.com">
  <metadata>
    <name>ChapelleE_GesvresRagon_11-20km</name>
    <desc><![CDATA[gnerando idor:10119982_10751486_12328489_12879936_8202803]]></desc>
  </metadata>
  <trk>
    <name><![CDATA[ChapelleE_CapelliaGolf_12km-10119982]]></name>
    <extensions>
      <line xmlns="http://www.topografix.com/GPX/gpx_style/0/2">
        <color>ff8000</color>
        <width>4</width>
      </line>
    </extensions>
    <trkseg>
      <trkpt lat="47.27981" lon="-1.557">
        <ele>40</ele>
        <time>2023-11-03T12:54:39Z</time>
      </trkpt>
      <trkpt lat="47.27977" lon="-1.55726">
        <ele>40</ele>
        <time>2023-11-03T12:55:03Z</time>
      </trkpt>
      <trkpt lat="47.27973" lon="-1.55754">
        <ele>39</ele>
        <time>2023-11-03T12:55:29Z</time>
      </trkpt>
      <trkpt lat="47.27973" lon="-1.5578">
        <ele>39</ele>
        <time>2023-11-03T12:55:53Z</time>
      </trkpt>
      <trkpt lat="47.27977" lon="-1.55815">
        <ele>38</ele>
        <time>2023-11-03T12:56:25Z</time>
      </trkpt>
      <trkpt lat="47.27971" lon="-1.55843">
        <ele>37</ele>
        <time>2023-11-03T12:56:51Z</time>
      </trkpt>
      <trkpt lat="47.27967" lon="-1.55869">
        <ele>37</ele>
        <time>2023-11-03T12:57:15Z</time>
      </trkpt>
      <trkpt lat="47.27954" lon="-1.55898">
        <ele>36</ele>
        <time>2023-11-03T12:57:47Z</time>
      </trkpt>
      <trkpt lat="47.27931" lon="-1.55899">
        <ele>36</ele>
        <time>2023-11-03T12:58:18Z</time>
      </trkpt>
      <trkpt lat="47.27914" lon="-1.55887">
        <ele>36</ele>
        <time>2023-11-03T12:58:43Z</time>
      </trkpt>
      <trkpt lat="47.27897" lon="-1.55878">
        <ele>35</ele>
        <time>2023-11-03T12:59:07Z</time>
      </trkpt>
      <trkpt lat="47.27876" lon="-1.5587">
        <ele>35</ele>
        <time>2023-11-03T12:59:36Z</time>
      </trkpt>
      <trkpt lat="47.27859" lon="-1.55857">
        <ele>34</ele>
        <time>2023-11-03T13:00:01Z</time>
      </trkpt>
      <trkpt lat="47.27841" lon="-1.55849">
        <ele>33</ele>
        <time>2023-11-03T13:00:26Z</time>
      </trkpt>
      <trkpt lat="47.27824" lon="-1.55835">
        <ele>33</ele>
        <time>2023-11-03T13:00:52Z</time>
      </trkpt>
      <trkpt lat="47.27802" lon="-1.55844">
        <ele>33</ele>
        <time>2023-11-03T13:01:23Z</time>
      </trkpt>
      <trkpt lat="47.27788" lon="-1.55862">
        <ele>32</ele>
        <time>2023-11-03T13:01:48Z</time>
      </trkpt>
      <trkpt lat="47.27775" lon="-1.55881">
        <ele>32</ele>
        <time>2023-11-03T13:02:12Z</time>
      </trkpt>
      <trkpt lat="47.27761" lon="-1.55904">
        <ele>32</ele>
        <time>2023-11-03T13:02:40Z</time>
      </trkpt>
      <trkpt lat="47.27744" lon="-1.5592">
        <ele>32</ele>
        <time>2023-11-03T13:03:07Z</time>
      </trkpt>
      <trkpt lat="47.27706" lon="-1.55942">
        <ele>30</ele>
        <time>2023-11-03T13:04:02Z</time>
      </trkpt>
      <trkpt lat="47.27686" lon="-1.55955">
        <ele>29</ele>
        <time>2023-11-03T13:04:31Z</time>
      </trkpt>
      <trkpt lat="47.2767" lon="-1.55972">
        <ele>28</ele>
        <time>2023-11-03T13:04:57Z</time>
      </trkpt>
      <trkpt lat="47.27653" lon="-1.55989">
        <ele>28</ele>
        <time>2023-11-03T13:05:24Z</time>
      </trkpt>
      <trkpt lat="47.27637" lon="-1.56008">
        <ele>27</ele>
        <time>2023-11-03T13:05:52Z</time>
      </trkpt>
      <trkpt lat="47.27625" lon="-1.56033">
        <ele>27</ele>
        <time>2023-11-03T13:06:20Z</time>
      </trkpt>
      <trkpt lat="47.27624" lon="-1.5606">
        <ele>26</ele>
        <time>2023-11-03T13:06:44Z</time>
      </trkpt>
      <trkpt lat="47.2764" lon="-1.56077">
        <ele>26</ele>
        <time>2023-11-03T13:07:10Z</time>
      </trkpt>
      <trkpt lat="47.27657" lon="-1.56097">
        <ele>25</ele>
        <time>2023-11-03T13:07:39Z</time>
      </trkpt>
      <trkpt lat="47.27674" lon="-1.56111">
        <ele>24</ele>
        <time>2023-11-03T13:08:05Z</time>
      </trkpt>
      <trkpt lat="47.27691" lon="-1.56123">
        <ele>24</ele>
        <time>2023-11-03T13:08:31Z</time>
      </trkpt>
      <trkpt lat="47.27709" lon="-1.56133">
        <ele>25</ele>
        <time>2023-11-03T13:08:56Z</time>
      </trkpt>
      <trkpt lat="47.27729" lon="-1.56143">
        <ele>26</ele>
        <time>2023-11-03T13:09:24Z</time>
      </trkpt>
      <trkpt lat="47.2775" lon="-1.5616">
        <ele>27</ele>
        <time>2023-11-03T13:09:56Z</time>
      </trkpt>
      <trkpt lat="47.27763" lon="-1.56184">
        <ele>27</ele>
        <time>2023-11-03T13:10:24Z</time>
      </trkpt>
      <trkpt lat="47.27774" lon="-1.5621">
        <ele>27</ele>
        <time>2023-11-03T13:10:52Z</time>
      </trkpt>
      <trkpt lat="47.27785" lon="-1.56233">
        <ele>27</ele>
        <time>2023-11-03T13:11:17Z</time>
      </trkpt>
      <trkpt lat="47.27794" lon="-1.56257">
        <ele>26</ele>
        <time>2023-11-03T13:11:42Z</time>
      </trkpt>
      <trkpt lat="47.27802" lon="-1.56284">
        <ele>24</ele>
        <time>2023-11-03T13:12:09Z</time>
      </trkpt>
      <trkpt lat="47.27812" lon="-1.56307">
        <ele>23</ele>
        <time>2023-11-03T13:12:34Z</time>
      </trkpt>
      <trkpt lat="47.27829" lon="-1.56334">
        <ele>23</ele>
        <time>2023-11-03T13:13:07Z</time>
      </trkpt>
      <trkpt lat="47.27845" lon="-1.56354">
        <ele>23</ele>
        <time>2023-11-03T13:13:35Z</time>
      </trkpt>
      <trkpt lat="47.2786" lon="-1.56376">
        <ele>22</ele>
        <time>2023-11-03T13:14:03Z</time>
      </trkpt>
      <trkpt lat="47.27861" lon="-1.56403">
        <ele>20</ele>
        <time>2023-11-03T13:14:28Z</time>
      </trkpt>
      <trkpt lat="47.27861" lon="-1.5643">
        <ele>18</ele>
        <time>2023-11-03T13:14:52Z</time>
      </trkpt>
      <trkpt lat="47.27858" lon="-1.56457">
        <ele>17</ele>
        <time>2023-11-03T13:15:17Z</time>
      </trkpt>
      <trkpt lat="47.27859" lon="-1.56484">
        <ele>15</ele>
        <time>2023-11-03T13:15:41Z</time>
      </trkpt>
      <trkpt lat="47.27862" lon="-1.5651">
        <ele>14</ele>
        <time>2023-11-03T13:16:05Z</time>
      </trkpt>
      <trkpt lat="47.27875" lon="-1.56534">
        <ele>15</ele>
        <time>2023-11-03T13:16:33Z</time>
      </trkpt>
      <trkpt lat="47.27894" lon="-1.56555">
        <ele>15</ele>
        <time>2023-11-03T13:17:05Z</time>
      </trkpt>
      <trkpt lat="47.27905" lon="-1.56577">
        <ele>15</ele>
        <time>2023-11-03T13:17:29Z</time>
      </trkpt>
      <trkpt lat="47.27922" lon="-1.5659">
        <ele>16</ele>
        <time>2023-11-03T13:17:55Z</time>
      </trkpt>
      <trkpt lat="47.27937" lon="-1.56616">
        <ele>17</ele>
        <time>2023-11-03T13:18:26Z</time>
      </trkpt>
      <trkpt lat="47.27942" lon="-1.56645">
        <ele>16</ele>
        <time>2023-11-03T13:18:53Z</time>
      </trkpt>
      <trkpt lat="47.27943" lon="-1.56674">
        <ele>17</ele>
        <time>2023-11-03T13:19:19Z</time>
      </trkpt>
      <trkpt lat="47.27923" lon="-1.56673">
        <ele>17</ele>
        <time>2023-11-03T13:19:46Z</time>
      </trkpt>
      <trkpt lat="47.27903" lon="-1.56677">
        <ele>18</ele>
        <time>2023-11-03T13:20:13Z</time>
      </trkpt>
      <trkpt lat="47.27886" lon="-1.56686">
        <ele>19</ele>
        <time>2023-11-03T13:20:37Z</time>
      </trkpt>
      <trkpt lat="47.27872" lon="-1.56709">
        <ele>22</ele>
        <time>2023-11-03T13:21:05Z</time>
      </trkpt>
      <trkpt lat="47.27851" lon="-1.56715">
        <ele>23</ele>
        <time>2023-11-03T13:21:34Z</time>
      </trkpt>
      <trkpt lat="47.27834" lon="-1.56729">
        <ele>25</ele>
        <time>2023-11-03T13:22:00Z</time>
      </trkpt>
      <trkpt lat="47.27817" lon="-1.56745">
        <ele>28</ele>
        <time>2023-11-03T13:22:26Z</time>
      </trkpt>
      <trkpt lat="47.278" lon="-1.56767">
        <ele>30</ele>
        <time>2023-11-03T13:22:57Z</time>
      </trkpt>
      <trkpt lat="47.27786" lon="-1.56785">
        <ele>31</ele>
        <time>2023-11-03T13:23:21Z</time>
      </trkpt>
      <trkpt lat="47.27766" lon="-1.56801">
        <ele>33</ele>
        <time>2023-11-03T13:23:52Z</time>
      </trkpt>
      <trkpt lat="47.27752" lon="-1.56819">
        <ele>34</ele>
        <time>2023-11-03T13:24:17Z</time>
      </trkpt>
      <trkpt lat="47.27732" lon="-1.56828">
        <ele>34</ele>
        <time>2023-11-03T13:24:45Z</time>
      </trkpt>
      <trkpt lat="47.27717" lon="-1.56771">
        <ele>31</ele>
        <time>2023-11-03T13:25:40Z</time>
      </trkpt>
      <trkpt lat="47.27709" lon="-1.56745">
        <ele>30</ele>
        <time>2023-11-03T13:26:06Z</time>
      </trkpt>
      <trkpt lat="47.27697" lon="-1.56717">
        <ele>29</ele>
        <time>2023-11-03T13:26:36Z</time>
      </trkpt>
      <trkpt lat="47.27685" lon="-1.56692">
        <ele>29</ele>
        <time>2023-11-03T13:27:03Z</time>
      </trkpt>
      <trkpt lat="47.27665" lon="-1.56642">
        <ele>28</ele>
        <time>2023-11-03T13:27:56Z</time>
      </trkpt>
      <trkpt lat="47.27653" lon="-1.56615">
        <ele>26</ele>
        <time>2023-11-03T13:28:25Z</time>
      </trkpt>
      <trkpt lat="47.27644" lon="-1.56591">
        <ele>25</ele>
        <time>2023-11-03T13:28:50Z</time>
      </trkpt>
      <trkpt lat="47.27633" lon="-1.56562">
        <ele>24</ele>
        <time>2023-11-03T13:29:20Z</time>
      </trkpt>
      <trkpt lat="47.27621" lon="-1.56534">
        <ele>24</ele>
        <time>2023-11-03T13:29:50Z</time>
      </trkpt>
      <trkpt lat="47.2761" lon="-1.56511">
        <ele>24</ele>
        <time>2023-11-03T13:30:16Z</time>
      </trkpt>
      <trkpt lat="47.27603" lon="-1.56487">
        <ele>23</ele>
        <time>2023-11-03T13:30:39Z</time>
      </trkpt>
      <trkpt lat="47.27593" lon="-1.56462">
        <ele>22</ele>
        <time>2023-11-03T13:31:06Z</time>
      </trkpt>
      <trkpt lat="47.2758" lon="-1.56439">
        <ele>21</ele>
        <time>2023-11-03T13:31:33Z</time>
      </trkpt>
      <trkpt lat="47.2757" lon="-1.56417">
        <ele>20</ele>
        <time>2023-11-03T13:31:57Z</time>
      </trkpt>
      <trkpt lat="47.2756" lon="-1.56391">
        <ele>18</ele>
        <time>2023-11-03T13:32:24Z</time>
      </trkpt>
      <trkpt lat="47.2754" lon="-1.56385">
        <ele>17</ele>
        <time>2023-11-03T13:32:51Z</time>
      </trkpt>
      <trkpt lat="47.27526" lon="-1.56404">
        <ele>17</ele>
        <time>2023-11-03T13:33:16Z</time>
      </trkpt>
      <trkpt lat="47.27511" lon="-1.56421">
        <ele>18</ele>
        <time>2023-11-03T13:33:42Z</time>
      </trkpt>
      <trkpt lat="47.27489" lon="-1.56433">
        <ele>17</ele>
        <time>2023-11-03T13:34:13Z</time>
      </trkpt>
      <trkpt lat="47.27472" lon="-1.56445">
        <ele>18</ele>
        <time>2023-11-03T13:34:38Z</time>
      </trkpt>
      <trkpt lat="47.27432" lon="-1.5645">
        <ele>17</ele>
        <time>2023-11-03T13:35:32Z</time>
      </trkpt>
      <trkpt lat="47.27413" lon="-1.5645">
        <ele>17</ele>
        <time>2023-11-03T13:35:57Z</time>
      </trkpt>
      <trkpt lat="47.27396" lon="-1.56462">
        <ele>17</ele>
        <time>2023-11-03T13:36:22Z</time>
      </trkpt>
      <trkpt lat="47.27383" lon="-1.56482">
        <ele>18</ele>
        <time>2023-11-03T13:36:47Z</time>
      </trkpt>
      <trkpt lat="47.27365" lon="-1.56491">
        <ele>18</ele>
        <time>2023-11-03T13:37:13Z</time>
      </trkpt>
      <trkpt lat="47.27347" lon="-1.56479">
        <ele>17</ele>
        <time>2023-11-03T13:37:39Z</time>
      </trkpt>
      <trkpt lat="47.2733" lon="-1.56458">
        <ele>16</ele>
        <time>2023-11-03T13:38:08Z</time>
      </trkpt>
      <trkpt lat="47.27314" lon="-1.56445">
        <ele>15</ele>
        <time>2023-11-03T13:38:33Z</time>
      </trkpt>
      <trkpt lat="47.273" lon="-1.56426">
        <ele>14</ele>
        <time>2023-11-03T13:38:58Z</time>
      </trkpt>
      <trkpt lat="47.27278" lon="-1.56424">
        <ele>14</ele>
        <time>2023-11-03T13:39:28Z</time>
      </trkpt>
      <trkpt lat="47.27259" lon="-1.56409">
        <ele>13</ele>
        <time>2023-11-03T13:39:56Z</time>
      </trkpt>
      <trkpt lat="47.27243" lon="-1.56391">
        <ele>13</ele>
        <time>2023-11-03T13:40:23Z</time>
      </trkpt>
      <trkpt lat="47.27228" lon="-1.56375">
        <ele>13</ele>
        <time>2023-11-03T13:40:48Z</time>
      </trkpt>
      <trkpt lat="47.2721" lon="-1.5636">
        <ele>13</ele>
        <time>2023-11-03T13:41:16Z</time>
      </trkpt>
      <trkpt lat="47.2719" lon="-1.56349">
        <ele>13</ele>
        <time>2023-11-03T13:41:44Z</time>
      </trkpt>
      <trkpt lat="47.27177" lon="-1.56329">
        <ele>11</ele>
        <time>2023-11-03T13:42:09Z</time>
      </trkpt>
      <trkpt lat="47.27156" lon="-1.56315">
        <ele>12</ele>
        <time>2023-11-03T13:42:40Z</time>
      </trkpt>
      <trkpt lat="47.27137" lon="-1.56299">
        <ele>12</ele>
        <time>2023-11-03T13:43:09Z</time>
      </trkpt>
      <trkpt lat="47.27124" lon="-1.56279">
        <ele>12</ele>
        <time>2023-11-03T13:43:34Z</time>
      </trkpt>
      <trkpt lat="47.271" lon="-1.56237">
        <ele>11</ele>
        <time>2023-11-03T13:44:24Z</time>
      </trkpt>
      <trkpt lat="47.27083" lon="-1.56214">
        <ele>11</ele>
        <time>2023-11-03T13:44:55Z</time>
      </trkpt>
      <trkpt lat="47.27065" lon="-1.562">
        <ele>11</ele>
        <time>2023-11-03T13:45:22Z</time>
      </trkpt>
      <trkpt lat="47.27045" lon="-1.56193">
        <ele>12</ele>
        <time>2023-11-03T13:45:49Z</time>
      </trkpt>
      <trkpt lat="47.27027" lon="-1.56199">
        <ele>13</ele>
        <time>2023-11-03T13:46:14Z</time>
      </trkpt>
      <trkpt lat="47.27008" lon="-1.56202">
        <ele>14</ele>
        <time>2023-11-03T13:46:39Z</time>
      </trkpt>
      <trkpt lat="47.27" lon="-1.56232">
        <ele>15</ele>
        <time>2023-11-03T13:47:09Z</time>
      </trkpt>
      <trkpt lat="47.27011" lon="-1.56255">
        <ele>16</ele>
        <time>2023-11-03T13:47:34Z</time>
      </trkpt>
      <trkpt lat="47.27022" lon="-1.56276">
        <ele>17</ele>
        <time>2023-11-03T13:47:58Z</time>
      </trkpt>
      <trkpt lat="47.27024" lon="-1.56335">
        <ele>21</ele>
        <time>2023-11-03T13:48:52Z</time>
      </trkpt>
      <trkpt lat="47.27022" lon="-1.56362">
        <ele>22</ele>
        <time>2023-11-03T13:49:16Z</time>
      </trkpt>
      <trkpt lat="47.27024" lon="-1.5633">
        <ele>21</ele>
        <time>2023-11-03T13:49:45Z</time>
      </trkpt>
      <trkpt lat="47.27022" lon="-1.56299">
        <ele>19</ele>
        <time>2023-11-03T13:50:13Z</time>
      </trkpt>
      <trkpt lat="47.27016" lon="-1.56273">
        <ele>17</ele>
        <time>2023-11-03T13:50:38Z</time>
      </trkpt>
      <trkpt lat="47.27004" lon="-1.56253">
        <ele>16</ele>
        <time>2023-11-03T13:51:03Z</time>
      </trkpt>
      <trkpt lat="47.26999" lon="-1.5628">
        <ele>18</ele>
        <time>2023-11-03T13:51:28Z</time>
      </trkpt>
      <trkpt lat="47.26997" lon="-1.5631">
        <ele>20</ele>
        <time>2023-11-03T13:51:55Z</time>
      </trkpt>
      <trkpt lat="47.26989" lon="-1.56339">
        <ele>21</ele>
        <time>2023-11-03T13:52:24Z</time>
      </trkpt>
      <trkpt lat="47.26982" lon="-1.56364">
        <ele>22</ele>
        <time>2023-11-03T13:52:48Z</time>
      </trkpt>
      <trkpt lat="47.26977" lon="-1.5639">
        <ele>23</ele>
        <time>2023-11-03T13:53:12Z</time>
      </trkpt>
      <trkpt lat="47.26973" lon="-1.56418">
        <ele>24</ele>
        <time>2023-11-03T13:53:38Z</time>
      </trkpt>
      <trkpt lat="47.26978" lon="-1.56446">
        <ele>24</ele>
        <time>2023-11-03T13:54:05Z</time>
      </trkpt>
      <trkpt lat="47.26993" lon="-1.56461">
        <ele>24</ele>
        <time>2023-11-03T13:54:29Z</time>
      </trkpt>
      <trkpt lat="47.27015" lon="-1.56474">
        <ele>24</ele>
        <time>2023-11-03T13:55:00Z</time>
      </trkpt>
      <trkpt lat="47.27028" lon="-1.56491">
        <ele>24</ele>
        <time>2023-11-03T13:55:24Z</time>
      </trkpt>
      <trkpt lat="47.27039" lon="-1.5652">
        <ele>24</ele>
        <time>2023-11-03T13:55:54Z</time>
      </trkpt>
      <trkpt lat="47.27054" lon="-1.56546">
        <ele>24</ele>
        <time>2023-11-03T13:56:25Z</time>
      </trkpt>
      <trkpt lat="47.27071" lon="-1.56563">
        <ele>23</ele>
        <time>2023-11-03T13:56:52Z</time>
      </trkpt>
      <trkpt lat="47.27084" lon="-1.56582">
        <ele>23</ele>
        <time>2023-11-03T13:57:16Z</time>
      </trkpt>
      <trkpt lat="47.27096" lon="-1.56604">
        <ele>24</ele>
        <time>2023-11-03T13:57:42Z</time>
      </trkpt>
      <trkpt lat="47.27109" lon="-1.56627">
        <ele>24</ele>
        <time>2023-11-03T13:58:09Z</time>
      </trkpt>
      <trkpt lat="47.27129" lon="-1.56643">
        <ele>25</ele>
        <time>2023-11-03T13:58:39Z</time>
      </trkpt>
      <trkpt lat="47.27146" lon="-1.56653">
        <ele>25</ele>
        <time>2023-11-03T13:59:04Z</time>
      </trkpt>
      <trkpt lat="47.27158" lon="-1.56676">
        <ele>25</ele>
        <time>2023-11-03T13:59:30Z</time>
      </trkpt>
      <trkpt lat="47.27179" lon="-1.56684">
        <ele>24</ele>
        <time>2023-11-03T13:59:59Z</time>
      </trkpt>
      <trkpt lat="47.27199" lon="-1.56673">
        <ele>24</ele>
        <time>2023-11-03T14:00:28Z</time>
      </trkpt>
      <trkpt lat="47.27211" lon="-1.56654">
        <ele>24</ele>
        <time>2023-11-03T14:00:51Z</time>
      </trkpt>
      <trkpt lat="47.27231" lon="-1.56641">
        <ele>23</ele>
        <time>2023-11-03T14:01:20Z</time>
      </trkpt>
      <trkpt lat="47.2723" lon="-1.56615">
        <ele>22</ele>
        <time>2023-11-03T14:01:44Z</time>
      </trkpt>
      <trkpt lat="47.27237" lon="-1.5664">
        <ele>23</ele>
        <time>2023-11-03T14:02:08Z</time>
      </trkpt>
      <trkpt lat="47.27256" lon="-1.56657">
        <ele>23</ele>
        <time>2023-11-03T14:02:38Z</time>
      </trkpt>
      <trkpt lat="47.27272" lon="-1.56672">
        <ele>23</ele>
        <time>2023-11-03T14:03:03Z</time>
      </trkpt>
      <trkpt lat="47.27289" lon="-1.56683">
        <ele>24</ele>
        <time>2023-11-03T14:03:28Z</time>
      </trkpt>
      <trkpt lat="47.27307" lon="-1.567">
        <ele>25</ele>
        <time>2023-11-03T14:03:57Z</time>
      </trkpt>
      <trkpt lat="47.27326" lon="-1.56712">
        <ele>26</ele>
        <time>2023-11-03T14:04:24Z</time>
      </trkpt>
      <trkpt lat="47.27342" lon="-1.56726">
        <ele>27</ele>
        <time>2023-11-03T14:04:49Z</time>
      </trkpt>
      <trkpt lat="47.27362" lon="-1.56739">
        <ele>27</ele>
        <time>2023-11-03T14:05:18Z</time>
      </trkpt>
      <trkpt lat="47.2738" lon="-1.56763">
        <ele>28</ele>
        <time>2023-11-03T14:05:51Z</time>
      </trkpt>
      <trkpt lat="47.27395" lon="-1.56777">
        <ele>28</ele>
        <time>2023-11-03T14:06:14Z</time>
      </trkpt>
      <trkpt lat="47.27414" lon="-1.56797">
        <ele>30</ele>
        <time>2023-11-03T14:06:45Z</time>
      </trkpt>
      <trkpt lat="47.27432" lon="-1.56811">
        <ele>31</ele>
        <time>2023-11-03T14:07:13Z</time>
      </trkpt>
      <trkpt lat="47.27453" lon="-1.56822">
        <ele>32</ele>
        <time>2023-11-03T14:07:42Z</time>
      </trkpt>
      <trkpt lat="47.27486" lon="-1.56846">
        <ele>33</ele>
        <time>2023-11-03T14:08:31Z</time>
      </trkpt>
      <trkpt lat="47.27503" lon="-1.5686">
        <ele>33</ele>
        <time>2023-11-03T14:08:57Z</time>
      </trkpt>
      <trkpt lat="47.27521" lon="-1.56876">
        <ele>33</ele>
        <time>2023-11-03T14:09:26Z</time>
      </trkpt>
      <trkpt lat="47.2754" lon="-1.56892">
        <ele>34</ele>
        <time>2023-11-03T14:09:55Z</time>
      </trkpt>
      <trkpt lat="47.27572" lon="-1.56918">
        <ele>36</ele>
        <time>2023-11-03T14:10:43Z</time>
      </trkpt>
      <trkpt lat="47.27588" lon="-1.56932">
        <ele>36</ele>
        <time>2023-11-03T14:11:08Z</time>
      </trkpt>
      <trkpt lat="47.27603" lon="-1.56948">
        <ele>36</ele>
        <time>2023-11-03T14:11:33Z</time>
      </trkpt>
      <trkpt lat="47.27613" lon="-1.56974">
        <ele>37</ele>
        <time>2023-11-03T14:12:00Z</time>
      </trkpt>
      <trkpt lat="47.27599" lon="-1.56992">
        <ele>38</ele>
        <time>2023-11-03T14:12:25Z</time>
      </trkpt>
      <trkpt lat="47.27583" lon="-1.57011">
        <ele>39</ele>
        <time>2023-11-03T14:12:52Z</time>
      </trkpt>
      <trkpt lat="47.27567" lon="-1.57035">
        <ele>39</ele>
        <time>2023-11-03T14:13:23Z</time>
      </trkpt>
      <trkpt lat="47.27553" lon="-1.57055">
        <ele>39</ele>
        <time>2023-11-03T14:13:49Z</time>
      </trkpt>
      <trkpt lat="47.27526" lon="-1.57102">
        <ele>39</ele>
        <time>2023-11-03T14:14:45Z</time>
      </trkpt>
      <trkpt lat="47.27512" lon="-1.57119">
        <ele>39</ele>
        <time>2023-11-03T14:15:09Z</time>
      </trkpt>
      <trkpt lat="47.27495" lon="-1.57131">
        <ele>39</ele>
        <time>2023-11-03T14:15:34Z</time>
      </trkpt>
      <trkpt lat="47.27477" lon="-1.57146">
        <ele>38</ele>
        <time>2023-11-03T14:16:01Z</time>
      </trkpt>
      <trkpt lat="47.27458" lon="-1.57151">
        <ele>38</ele>
        <time>2023-11-03T14:16:27Z</time>
      </trkpt>
      <trkpt lat="47.27438" lon="-1.57159">
        <ele>37</ele>
        <time>2023-11-03T14:16:55Z</time>
      </trkpt>
      <trkpt lat="47.27429" lon="-1.57183">
        <ele>37</ele>
        <time>2023-11-03T14:17:20Z</time>
      </trkpt>
      <trkpt lat="47.27429" lon="-1.57211">
        <ele>38</ele>
        <time>2023-11-03T14:17:45Z</time>
      </trkpt>
      <trkpt lat="47.27425" lon="-1.5727">
        <ele>39</ele>
        <time>2023-11-03T14:18:39Z</time>
      </trkpt>
      <trkpt lat="47.27422" lon="-1.57301">
        <ele>39</ele>
        <time>2023-11-03T14:19:07Z</time>
      </trkpt>
      <trkpt lat="47.27411" lon="-1.57385">
        <ele>39</ele>
        <time>2023-11-03T14:20:25Z</time>
      </trkpt>
      <trkpt lat="47.27406" lon="-1.57412">
        <ele>39</ele>
        <time>2023-11-03T14:20:50Z</time>
      </trkpt>
      <trkpt lat="47.27401" lon="-1.57472">
        <ele>39</ele>
        <time>2023-11-03T14:21:45Z</time>
      </trkpt>
      <trkpt lat="47.274" lon="-1.57502">
        <ele>39</ele>
        <time>2023-11-03T14:22:12Z</time>
      </trkpt>
      <trkpt lat="47.2741" lon="-1.57526">
        <ele>40</ele>
        <time>2023-11-03T14:22:37Z</time>
      </trkpt>
      <trkpt lat="47.27428" lon="-1.5753">
        <ele>40</ele>
        <time>2023-11-03T14:23:02Z</time>
      </trkpt>
      <trkpt lat="47.27445" lon="-1.57542">
        <ele>40</ele>
        <time>2023-11-03T14:23:27Z</time>
      </trkpt>
      <trkpt lat="47.27459" lon="-1.5756">
        <ele>40</ele>
        <time>2023-11-03T14:23:52Z</time>
      </trkpt>
      <trkpt lat="47.27475" lon="-1.57579">
        <ele>41</ele>
        <time>2023-11-03T14:24:19Z</time>
      </trkpt>
      <trkpt lat="47.27487" lon="-1.57601">
        <ele>41</ele>
        <time>2023-11-03T14:24:45Z</time>
      </trkpt>
      <trkpt lat="47.27495" lon="-1.57632">
        <ele>41</ele>
        <time>2023-11-03T14:25:15Z</time>
      </trkpt>
      <trkpt lat="47.27489" lon="-1.57657">
        <ele>41</ele>
        <time>2023-11-03T14:25:39Z</time>
      </trkpt>
      <trkpt lat="47.2748" lon="-1.57682">
        <ele>40</ele>
        <time>2023-11-03T14:26:04Z</time>
      </trkpt>
      <trkpt lat="47.27469" lon="-1.57709">
        <ele>39</ele>
        <time>2023-11-03T14:26:33Z</time>
      </trkpt>
      <trkpt lat="47.2746" lon="-1.57737">
        <ele>39</ele>
        <time>2023-11-03T14:27:01Z</time>
      </trkpt>
      <trkpt lat="47.27452" lon="-1.57767">
        <ele>38</ele>
        <time>2023-11-03T14:27:30Z</time>
      </trkpt>
      <trkpt lat="47.27448" lon="-1.57799">
        <ele>38</ele>
        <time>2023-11-03T14:27:59Z</time>
      </trkpt>
      <trkpt lat="47.27443" lon="-1.57824">
        <ele>38</ele>
        <time>2023-11-03T14:28:23Z</time>
      </trkpt>
      <trkpt lat="47.27441" lon="-1.57852">
        <ele>38</ele>
        <time>2023-11-03T14:28:49Z</time>
      </trkpt>
      <trkpt lat="47.27436" lon="-1.57879">
        <ele>39</ele>
        <time>2023-11-03T14:29:14Z</time>
      </trkpt>
      <trkpt lat="47.27433" lon="-1.57909">
        <ele>39</ele>
        <time>2023-11-03T14:29:41Z</time>
      </trkpt>
      <trkpt lat="47.27427" lon="-1.57936">
        <ele>40</ele>
        <time>2023-11-03T14:30:07Z</time>
      </trkpt>
      <trkpt lat="47.27419" lon="-1.57997">
        <ele>42</ele>
        <time>2023-11-03T14:31:03Z</time>
      </trkpt>
      <trkpt lat="47.27412" lon="-1.58026">
        <ele>42</ele>
        <time>2023-11-03T14:31:31Z</time>
      </trkpt>
      <trkpt lat="47.27415" lon="-1.5806">
        <ele>43</ele>
        <time>2023-11-03T14:32:02Z</time>
      </trkpt>
      <trkpt lat="47.27415" lon="-1.58091">
        <ele>43</ele>
        <time>2023-11-03T14:32:30Z</time>
      </trkpt>
      <trkpt lat="47.27409" lon="-1.58124">
        <ele>42</ele>
        <time>2023-11-03T14:33:01Z</time>
      </trkpt>
      <trkpt lat="47.27402" lon="-1.5815">
        <ele>42</ele>
        <time>2023-11-03T14:33:27Z</time>
      </trkpt>
      <trkpt lat="47.27391" lon="-1.58179">
        <ele>41</ele>
        <time>2023-11-03T14:33:57Z</time>
      </trkpt>
      <trkpt lat="47.27376" lon="-1.58199">
        <ele>41</ele>
        <time>2023-11-03T14:34:24Z</time>
      </trkpt>
      <trkpt lat="47.27366" lon="-1.58222">
        <ele>41</ele>
        <time>2023-11-03T14:34:48Z</time>
      </trkpt>
      <trkpt lat="47.27357" lon="-1.58248">
        <ele>41</ele>
        <time>2023-11-03T14:35:15Z</time>
      </trkpt>
      <trkpt lat="47.27351" lon="-1.58273">
        <ele>41</ele>
        <time>2023-11-03T14:35:39Z</time>
      </trkpt>
      <trkpt lat="47.27342" lon="-1.58301">
        <ele>41</ele>
        <time>2023-11-03T14:36:07Z</time>
      </trkpt>
      <trkpt lat="47.27329" lon="-1.58357">
        <ele>44</ele>
        <time>2023-11-03T14:37:00Z</time>
      </trkpt>
      <trkpt lat="47.27324" lon="-1.58384">
        <ele>45</ele>
        <time>2023-11-03T14:37:26Z</time>
      </trkpt>
      <trkpt lat="47.27313" lon="-1.58409">
        <ele>46</ele>
        <time>2023-11-03T14:37:53Z</time>
      </trkpt>
      <trkpt lat="47.27295" lon="-1.58408">
        <ele>46</ele>
        <time>2023-11-03T14:38:17Z</time>
      </trkpt>
      <trkpt lat="47.27277" lon="-1.58417">
        <ele>46</ele>
        <time>2023-11-03T14:38:42Z</time>
      </trkpt>
      <trkpt lat="47.27258" lon="-1.58419">
        <ele>45</ele>
        <time>2023-11-03T14:39:08Z</time>
      </trkpt>
      <trkpt lat="47.27235" lon="-1.58422">
        <ele>45</ele>
        <time>2023-11-03T14:39:38Z</time>
      </trkpt>
      <trkpt lat="47.27216" lon="-1.58414">
        <ele>45</ele>
        <time>2023-11-03T14:40:05Z</time>
      </trkpt>
      <trkpt lat="47.272" lon="-1.58391">
        <ele>44</ele>
        <time>2023-11-03T14:40:35Z</time>
      </trkpt>
      <trkpt lat="47.27188" lon="-1.58365">
        <ele>44</ele>
        <time>2023-11-03T14:41:03Z</time>
      </trkpt>
      <trkpt lat="47.27185" lon="-1.58336">
        <ele>43</ele>
        <time>2023-11-03T14:41:30Z</time>
      </trkpt>
      <trkpt lat="47.27193" lon="-1.5831">
        <ele>43</ele>
        <time>2023-11-03T14:41:55Z</time>
      </trkpt>
      <trkpt lat="47.27194" lon="-1.58278">
        <ele>43</ele>
        <time>2023-11-03T14:42:24Z</time>
      </trkpt>
      <trkpt lat="47.27174" lon="-1.58267">
        <ele>43</ele>
        <time>2023-11-03T14:42:53Z</time>
      </trkpt>
      <trkpt lat="47.27156" lon="-1.58261">
        <ele>43</ele>
        <time>2023-11-03T14:43:18Z</time>
      </trkpt>
      <trkpt lat="47.27139" lon="-1.58257">
        <ele>44</ele>
        <time>2023-11-03T14:43:41Z</time>
      </trkpt>
      <trkpt lat="47.27119" lon="-1.58247">
        <ele>44</ele>
        <time>2023-11-03T14:44:09Z</time>
      </trkpt>
      <trkpt lat="47.271" lon="-1.5824">
        <ele>44</ele>
        <time>2023-11-03T14:44:35Z</time>
      </trkpt>
      <trkpt lat="47.27082" lon="-1.58235">
        <ele>45</ele>
        <time>2023-11-03T14:44:59Z</time>
      </trkpt>
      <trkpt lat="47.27062" lon="-1.58226">
        <ele>45</ele>
        <time>2023-11-03T14:45:27Z</time>
      </trkpt>
      <trkpt lat="47.27046" lon="-1.58241">
        <ele>45</ele>
        <time>2023-11-03T14:45:53Z</time>
      </trkpt>
      <trkpt lat="47.27041" lon="-1.58273">
        <ele>46</ele>
        <time>2023-11-03T14:46:22Z</time>
      </trkpt>
      <trkpt lat="47.2704" lon="-1.58307">
        <ele>47</ele>
        <time>2023-11-03T14:46:53Z</time>
      </trkpt>
      <trkpt lat="47.2703" lon="-1.58333">
        <ele>48</ele>
        <time>2023-11-03T14:47:20Z</time>
      </trkpt>
      <trkpt lat="47.27026" lon="-1.58361">
        <ele>48</ele>
        <time>2023-11-03T14:47:46Z</time>
      </trkpt>
      <trkpt lat="47.27025" lon="-1.58391">
        <ele>48</ele>
        <time>2023-11-03T14:48:13Z</time>
      </trkpt>
      <trkpt lat="47.27043" lon="-1.58394">
        <ele>48</ele>
        <time>2023-11-03T14:48:37Z</time>
      </trkpt>
      <trkpt lat="47.27058" lon="-1.58415">
        <ele>48</ele>
        <time>2023-11-03T14:49:05Z</time>
      </trkpt>
      <trkpt lat="47.27076" lon="-1.58424">
        <ele>47</ele>
        <time>2023-11-03T14:49:30Z</time>
      </trkpt>
      <trkpt lat="47.27095" lon="-1.5841">
        <ele>47</ele>
        <time>2023-11-03T14:49:59Z</time>
      </trkpt>
      <trkpt lat="47.27137" lon="-1.5842">
        <ele>45</ele>
        <time>2023-11-03T14:50:56Z</time>
      </trkpt>
      <trkpt lat="47.27157" lon="-1.58428">
        <ele>44</ele>
        <time>2023-11-03T14:51:23Z</time>
      </trkpt>
      <trkpt lat="47.27175" lon="-1.58412">
        <ele>44</ele>
        <time>2023-11-03T14:51:51Z</time>
      </trkpt>
      <trkpt lat="47.27194" lon="-1.58404">
        <ele>44</ele>
        <time>2023-11-03T14:52:18Z</time>
      </trkpt>
      <trkpt lat="47.27216" lon="-1.58398">
        <ele>45</ele>
        <time>2023-11-03T14:52:47Z</time>
      </trkpt>
      <trkpt lat="47.27234" lon="-1.584">
        <ele>45</ele>
        <time>2023-11-03T14:53:12Z</time>
      </trkpt>
      <trkpt lat="47.27256" lon="-1.584">
        <ele>45</ele>
        <time>2023-11-03T14:53:41Z</time>
      </trkpt>
      <trkpt lat="47.27277" lon="-1.58406">
        <ele>45</ele>
        <time>2023-11-03T14:54:09Z</time>
      </trkpt>
      <trkpt lat="47.27295" lon="-1.58397">
        <ele>45</ele>
        <time>2023-11-03T14:54:35Z</time>
      </trkpt>
      <trkpt lat="47.27313" lon="-1.58397">
        <ele>46</ele>
        <time>2023-11-03T14:54:59Z</time>
      </trkpt>
      <trkpt lat="47.27331" lon="-1.58402">
        <ele>46</ele>
        <time>2023-11-03T14:55:23Z</time>
      </trkpt>
      <trkpt lat="47.2735" lon="-1.58404">
        <ele>47</ele>
        <time>2023-11-03T14:55:49Z</time>
      </trkpt>
      <trkpt lat="47.27369" lon="-1.58409">
        <ele>47</ele>
        <time>2023-11-03T14:56:14Z</time>
      </trkpt>
      <trkpt lat="47.27408" lon="-1.58416">
        <ele>49</ele>
        <time>2023-11-03T14:57:07Z</time>
      </trkpt>
      <trkpt lat="47.27427" lon="-1.58421">
        <ele>49</ele>
        <time>2023-11-03T14:57:33Z</time>
      </trkpt>
      <trkpt lat="47.27445" lon="-1.58423">
        <ele>50</ele>
        <time>2023-11-03T14:57:57Z</time>
      </trkpt>
      <trkpt lat="47.27464" lon="-1.58425">
        <ele>50</ele>
        <time>2023-11-03T14:58:22Z</time>
      </trkpt>
      <trkpt lat="47.27506" lon="-1.58436">
        <ele>52</ele>
        <time>2023-11-03T14:59:19Z</time>
      </trkpt>
      <trkpt lat="47.27526" lon="-1.58445">
        <ele>52</ele>
        <time>2023-11-03T14:59:47Z</time>
      </trkpt>
      <trkpt lat="47.27544" lon="-1.58459">
        <ele>53</ele>
        <time>2023-11-03T15:00:14Z</time>
      </trkpt>
      <trkpt lat="47.27562" lon="-1.58471">
        <ele>53</ele>
        <time>2023-11-03T15:00:40Z</time>
      </trkpt>
      <trkpt lat="47.2758" lon="-1.5848">
        <ele>52</ele>
        <time>2023-11-03T15:01:06Z</time>
      </trkpt>
      <trkpt lat="47.27599" lon="-1.58488">
        <ele>52</ele>
        <time>2023-11-03T15:01:32Z</time>
      </trkpt>
      <trkpt lat="47.2762" lon="-1.58495">
        <ele>51</ele>
        <time>2023-11-03T15:02:01Z</time>
      </trkpt>
      <trkpt lat="47.27637" lon="-1.58502">
        <ele>51</ele>
        <time>2023-11-03T15:02:24Z</time>
      </trkpt>
      <trkpt lat="47.27656" lon="-1.5851">
        <ele>50</ele>
        <time>2023-11-03T15:02:51Z</time>
      </trkpt>
      <trkpt lat="47.27673" lon="-1.58522">
        <ele>50</ele>
        <time>2023-11-03T15:03:16Z</time>
      </trkpt>
      <trkpt lat="47.27693" lon="-1.58532">
        <ele>51</ele>
        <time>2023-11-03T15:03:44Z</time>
      </trkpt>
      <trkpt lat="47.27714" lon="-1.58542">
        <ele>52</ele>
        <time>2023-11-03T15:04:14Z</time>
      </trkpt>
      <trkpt lat="47.27733" lon="-1.58549">
        <ele>53</ele>
        <time>2023-11-03T15:04:40Z</time>
      </trkpt>
      <trkpt lat="47.27755" lon="-1.58558">
        <ele>53</ele>
        <time>2023-11-03T15:05:10Z</time>
      </trkpt>
      <trkpt lat="47.27773" lon="-1.58564">
        <ele>53</ele>
        <time>2023-11-03T15:05:35Z</time>
      </trkpt>
      <trkpt lat="47.27796" lon="-1.58572">
        <ele>52</ele>
        <time>2023-11-03T15:06:06Z</time>
      </trkpt>
      <trkpt lat="47.27818" lon="-1.5858">
        <ele>52</ele>
        <time>2023-11-03T15:06:37Z</time>
      </trkpt>
      <trkpt lat="47.27837" lon="-1.58584">
        <ele>52</ele>
        <time>2023-11-03T15:07:02Z</time>
      </trkpt>
      <trkpt lat="47.27857" lon="-1.58592">
        <ele>52</ele>
        <time>2023-11-03T15:07:30Z</time>
      </trkpt>
      <trkpt lat="47.27881" lon="-1.58595">
        <ele>53</ele>
        <time>2023-11-03T15:08:02Z</time>
      </trkpt>
      <trkpt lat="47.27902" lon="-1.58597">
        <ele>53</ele>
        <time>2023-11-03T15:08:30Z</time>
      </trkpt>
      <trkpt lat="47.27943" lon="-1.58599">
        <ele>53</ele>
        <time>2023-11-03T15:09:25Z</time>
      </trkpt>
      <trkpt lat="47.27962" lon="-1.58599">
        <ele>53</ele>
        <time>2023-11-03T15:09:50Z</time>
      </trkpt>
      <trkpt lat="47.28001" lon="-1.58595">
        <ele>54</ele>
        <time>2023-11-03T15:10:42Z</time>
      </trkpt>
      <trkpt lat="47.28021" lon="-1.586">
        <ele>53</ele>
        <time>2023-11-03T15:11:09Z</time>
      </trkpt>
      <trkpt lat="47.28033" lon="-1.58576">
        <ele>54</ele>
        <time>2023-11-03T15:11:36Z</time>
      </trkpt>
      <trkpt lat="47.2804" lon="-1.58544">
        <ele>54</ele>
        <time>2023-11-03T15:12:07Z</time>
      </trkpt>
      <trkpt lat="47.28051" lon="-1.58523">
        <ele>54</ele>
        <time>2023-11-03T15:12:31Z</time>
      </trkpt>
      <trkpt lat="47.28071" lon="-1.58476">
        <ele>53</ele>
        <time>2023-11-03T15:13:21Z</time>
      </trkpt>
      <trkpt lat="47.28085" lon="-1.58452">
        <ele>53</ele>
        <time>2023-11-03T15:13:50Z</time>
      </trkpt>
      <trkpt lat="47.28093" lon="-1.58426">
        <ele>52</ele>
        <time>2023-11-03T15:14:16Z</time>
      </trkpt>
      <trkpt lat="47.28115" lon="-1.58379">
        <ele>50</ele>
        <time>2023-11-03T15:15:07Z</time>
      </trkpt>
      <trkpt lat="47.2813" lon="-1.58354">
        <ele>50</ele>
        <time>2023-11-03T15:15:38Z</time>
      </trkpt>
      <trkpt lat="47.28151" lon="-1.58302">
        <ele>48</ele>
        <time>2023-11-03T15:16:32Z</time>
      </trkpt>
      <trkpt lat="47.28161" lon="-1.58278">
        <ele>48</ele>
        <time>2023-11-03T15:16:58Z</time>
      </trkpt>
      <trkpt lat="47.28179" lon="-1.58229">
        <ele>48</ele>
        <time>2023-11-03T15:17:48Z</time>
      </trkpt>
      <trkpt lat="47.28195" lon="-1.58212">
        <ele>48</ele>
        <time>2023-11-03T15:18:15Z</time>
      </trkpt>
      <trkpt lat="47.28207" lon="-1.58184">
        <ele>48</ele>
        <time>2023-11-03T15:18:45Z</time>
      </trkpt>
      <trkpt lat="47.28213" lon="-1.58156">
        <ele>48</ele>
        <time>2023-11-03T15:19:11Z</time>
      </trkpt>
      <trkpt lat="47.28225" lon="-1.58133">
        <ele>48</ele>
        <time>2023-11-03T15:19:37Z</time>
      </trkpt>
      <trkpt lat="47.28241" lon="-1.58108">
        <ele>47</ele>
        <time>2023-11-03T15:20:09Z</time>
      </trkpt>
      <trkpt lat="47.28235" lon="-1.58081">
        <ele>47</ele>
        <time>2023-11-03T15:20:34Z</time>
      </trkpt>
      <trkpt lat="47.28233" lon="-1.58051">
        <ele>47</ele>
        <time>2023-11-03T15:21:02Z</time>
      </trkpt>
      <trkpt lat="47.28249" lon="-1.58036">
        <ele>47</ele>
        <time>2023-11-03T15:21:27Z</time>
      </trkpt>
      <trkpt lat="47.28306" lon="-1.57999">
        <ele>45</ele>
        <time>2023-11-03T15:22:50Z</time>
      </trkpt>
      <trkpt lat="47.28325" lon="-1.57986">
        <ele>44</ele>
        <time>2023-11-03T15:23:18Z</time>
      </trkpt>
      <trkpt lat="47.28341" lon="-1.57971">
        <ele>44</ele>
        <time>2023-11-03T15:23:43Z</time>
      </trkpt>
      <trkpt lat="47.28357" lon="-1.57958">
        <ele>44</ele>
        <time>2023-11-03T15:24:08Z</time>
      </trkpt>
      <trkpt lat="47.28369" lon="-1.57937">
        <ele>44</ele>
        <time>2023-11-03T15:24:32Z</time>
      </trkpt>
      <trkpt lat="47.28386" lon="-1.57913">
        <ele>44</ele>
        <time>2023-11-03T15:25:04Z</time>
      </trkpt>
      <trkpt lat="47.28403" lon="-1.5789">
        <ele>43</ele>
        <time>2023-11-03T15:25:35Z</time>
      </trkpt>
      <trkpt lat="47.28417" lon="-1.5787">
        <ele>43</ele>
        <time>2023-11-03T15:26:01Z</time>
      </trkpt>
      <trkpt lat="47.28428" lon="-1.57846">
        <ele>42</ele>
        <time>2023-11-03T15:26:27Z</time>
      </trkpt>
      <trkpt lat="47.28459" lon="-1.578">
        <ele>43</ele>
        <time>2023-11-03T15:27:26Z</time>
      </trkpt>
      <trkpt lat="47.2847" lon="-1.57778">
        <ele>43</ele>
        <time>2023-11-03T15:27:50Z</time>
      </trkpt>
      <trkpt lat="47.28486" lon="-1.57759">
        <ele>43</ele>
        <time>2023-11-03T15:28:18Z</time>
      </trkpt>
      <trkpt lat="47.28501" lon="-1.57737">
        <ele>43</ele>
        <time>2023-11-03T15:28:46Z</time>
      </trkpt>
      <trkpt lat="47.28518" lon="-1.57716">
        <ele>43</ele>
        <time>2023-11-03T15:29:16Z</time>
      </trkpt>
      <trkpt lat="47.28532" lon="-1.57693">
        <ele>43</ele>
        <time>2023-11-03T15:29:44Z</time>
      </trkpt>
      <trkpt lat="47.28551" lon="-1.57678">
        <ele>44</ele>
        <time>2023-11-03T15:30:12Z</time>
      </trkpt>
      <trkpt lat="47.28587" lon="-1.57644">
        <ele>44</ele>
        <time>2023-11-03T15:31:09Z</time>
      </trkpt>
      <trkpt lat="47.28606" lon="-1.5763">
        <ele>43</ele>
        <time>2023-11-03T15:31:38Z</time>
      </trkpt>
      <trkpt lat="47.28625" lon="-1.57612">
        <ele>43</ele>
        <time>2023-11-03T15:32:08Z</time>
      </trkpt>
      <trkpt lat="47.28642" lon="-1.57592">
        <ele>43</ele>
        <time>2023-11-03T15:32:37Z</time>
      </trkpt>
      <trkpt lat="47.28661" lon="-1.57579">
        <ele>43</ele>
        <time>2023-11-03T15:33:05Z</time>
      </trkpt>
      <trkpt lat="47.2868" lon="-1.57562">
        <ele>43</ele>
        <time>2023-11-03T15:33:35Z</time>
      </trkpt>
      <trkpt lat="47.28699" lon="-1.57547">
        <ele>42</ele>
        <time>2023-11-03T15:34:03Z</time>
      </trkpt>
      <trkpt lat="47.28716" lon="-1.57531">
        <ele>42</ele>
        <time>2023-11-03T15:34:30Z</time>
      </trkpt>
      <trkpt lat="47.2871" lon="-1.57506">
        <ele>42</ele>
        <time>2023-11-03T15:34:54Z</time>
      </trkpt>
      <trkpt lat="47.28697" lon="-1.5748">
        <ele>43</ele>
        <time>2023-11-03T15:35:23Z</time>
      </trkpt>
      <trkpt lat="47.28677" lon="-1.5743">
        <ele>44</ele>
        <time>2023-11-03T15:36:16Z</time>
      </trkpt>
      <trkpt lat="47.28668" lon="-1.57402">
        <ele>44</ele>
        <time>2023-11-03T15:36:44Z</time>
      </trkpt>
      <trkpt lat="47.28644" lon="-1.57348">
        <ele>46</ele>
        <time>2023-11-03T15:37:42Z</time>
      </trkpt>
      <trkpt lat="47.28632" lon="-1.57322">
        <ele>46</ele>
        <time>2023-11-03T15:38:11Z</time>
      </trkpt>
      <trkpt lat="47.28623" lon="-1.57293">
        <ele>46</ele>
        <time>2023-11-03T15:38:40Z</time>
      </trkpt>
      <trkpt lat="47.28615" lon="-1.57262">
        <ele>45</ele>
        <time>2023-11-03T15:39:10Z</time>
      </trkpt>
      <trkpt lat="47.28605" lon="-1.57236">
        <ele>45</ele>
        <time>2023-11-03T15:39:37Z</time>
      </trkpt>
      <trkpt lat="47.28601" lon="-1.57208">
        <ele>44</ele>
        <time>2023-11-03T15:40:03Z</time>
      </trkpt>
      <trkpt lat="47.28593" lon="-1.57178">
        <ele>44</ele>
        <time>2023-11-03T15:40:32Z</time>
      </trkpt>
      <trkpt lat="47.28598" lon="-1.57148">
        <ele>42</ele>
        <time>2023-11-03T15:41:00Z</time>
      </trkpt>
      <trkpt lat="47.28611" lon="-1.57124">
        <ele>39</ele>
        <time>2023-11-03T15:41:28Z</time>
      </trkpt>
      <trkpt lat="47.28628" lon="-1.57112">
        <ele>38</ele>
        <time>2023-11-03T15:41:53Z</time>
      </trkpt>
      <trkpt lat="47.28649" lon="-1.57099">
        <ele>36</ele>
        <time>2023-11-03T15:42:23Z</time>
      </trkpt>
      <trkpt lat="47.28667" lon="-1.57106">
        <ele>36</ele>
        <time>2023-11-03T15:42:48Z</time>
      </trkpt>
      <trkpt lat="47.28685" lon="-1.57101">
        <ele>36</ele>
        <time>2023-11-03T15:43:13Z</time>
      </trkpt>
      <trkpt lat="47.28706" lon="-1.57091">
        <ele>36</ele>
        <time>2023-11-03T15:43:42Z</time>
      </trkpt>
      <trkpt lat="47.28727" lon="-1.57087">
        <ele>36</ele>
        <time>2023-11-03T15:44:10Z</time>
      </trkpt>
      <trkpt lat="47.28748" lon="-1.57081">
        <ele>36</ele>
        <time>2023-11-03T15:44:39Z</time>
      </trkpt>
      <trkpt lat="47.28786" lon="-1.57067">
        <ele>37</ele>
        <time>2023-11-03T15:45:31Z</time>
      </trkpt>
      <trkpt lat="47.28805" lon="-1.57063">
        <ele>37</ele>
        <time>2023-11-03T15:45:57Z</time>
      </trkpt>
      <trkpt lat="47.28821" lon="-1.57052">
        <ele>38</ele>
        <time>2023-11-03T15:46:20Z</time>
      </trkpt>
      <trkpt lat="47.28835" lon="-1.57031">
        <ele>38</ele>
        <time>2023-11-03T15:46:47Z</time>
      </trkpt>
      <trkpt lat="47.28848" lon="-1.57012">
        <ele>38</ele>
        <time>2023-11-03T15:47:11Z</time>
      </trkpt>
      <trkpt lat="47.28865" lon="-1.57">
        <ele>38</ele>
        <time>2023-11-03T15:47:36Z</time>
      </trkpt>
      <trkpt lat="47.28881" lon="-1.56987">
        <ele>37</ele>
        <time>2023-11-03T15:48:01Z</time>
      </trkpt>
      <trkpt lat="47.28901" lon="-1.5698">
        <ele>36</ele>
        <time>2023-11-03T15:48:28Z</time>
      </trkpt>
      <trkpt lat="47.28919" lon="-1.56972">
        <ele>36</ele>
        <time>2023-11-03T15:48:53Z</time>
      </trkpt>
      <trkpt lat="47.28939" lon="-1.56964">
        <ele>35</ele>
        <time>2023-11-03T15:49:21Z</time>
      </trkpt>
      <trkpt lat="47.28958" lon="-1.5696">
        <ele>34</ele>
        <time>2023-11-03T15:49:47Z</time>
      </trkpt>
      <trkpt lat="47.28978" lon="-1.56958">
        <ele>33</ele>
        <time>2023-11-03T15:50:13Z</time>
      </trkpt>
      <trkpt lat="47.28996" lon="-1.5695">
        <ele>32</ele>
        <time>2023-11-03T15:50:38Z</time>
      </trkpt>
      <trkpt lat="47.29014" lon="-1.56959">
        <ele>33</ele>
        <time>2023-11-03T15:51:04Z</time>
      </trkpt>
      <trkpt lat="47.29032" lon="-1.56963">
        <ele>33</ele>
        <time>2023-11-03T15:51:28Z</time>
      </trkpt>
      <trkpt lat="47.29043" lon="-1.56991">
        <ele>34</ele>
        <time>2023-11-03T15:51:57Z</time>
      </trkpt>
      <trkpt lat="47.29059" lon="-1.57012">
        <ele>34</ele>
        <time>2023-11-03T15:52:26Z</time>
      </trkpt>
      <trkpt lat="47.29078" lon="-1.57022">
        <ele>34</ele>
        <time>2023-11-03T15:52:53Z</time>
      </trkpt>
      <trkpt lat="47.29097" lon="-1.57011">
        <ele>33</ele>
        <time>2023-11-03T15:53:20Z</time>
      </trkpt>
      <trkpt lat="47.29116" lon="-1.56993">
        <ele>33</ele>
        <time>2023-11-03T15:53:50Z</time>
      </trkpt>
      <trkpt lat="47.29133" lon="-1.5698">
        <ele>32</ele>
        <time>2023-11-03T15:54:16Z</time>
      </trkpt>
      <trkpt lat="47.2915" lon="-1.56965">
        <ele>32</ele>
        <time>2023-11-03T15:54:42Z</time>
      </trkpt>
      <trkpt lat="47.29169" lon="-1.56953">
        <ele>31</ele>
        <time>2023-11-03T15:55:10Z</time>
      </trkpt>
      <trkpt lat="47.29189" lon="-1.56943">
        <ele>30</ele>
        <time>2023-11-03T15:55:38Z</time>
      </trkpt>
      <trkpt lat="47.29204" lon="-1.56919">
        <ele>29</ele>
        <time>2023-11-03T15:56:08Z</time>
      </trkpt>
      <trkpt lat="47.29214" lon="-1.56894">
        <ele>27</ele>
        <time>2023-11-03T15:56:34Z</time>
      </trkpt>
      <trkpt lat="47.29228" lon="-1.56864">
        <ele>25</ele>
        <time>2023-11-03T15:57:07Z</time>
      </trkpt>
      <trkpt lat="47.29241" lon="-1.56839">
        <ele>23</ele>
        <time>2023-11-03T15:57:35Z</time>
      </trkpt>
      <trkpt lat="47.29258" lon="-1.5683">
        <ele>21</ele>
        <time>2023-11-03T15:57:59Z</time>
      </trkpt>
      <trkpt lat="47.29268" lon="-1.56805">
        <ele>18</ele>
        <time>2023-11-03T15:58:26Z</time>
      </trkpt>
      <trkpt lat="47.29268" lon="-1.56774">
        <ele>16</ele>
        <time>2023-11-03T15:58:54Z</time>
      </trkpt>
      <trkpt lat="47.29263" lon="-1.56748">
        <ele>14</ele>
        <time>2023-11-03T15:59:18Z</time>
      </trkpt>
      <trkpt lat="47.29248" lon="-1.56723">
        <ele>15</ele>
        <time>2023-11-03T15:59:48Z</time>
      </trkpt>
      <trkpt lat="47.29242" lon="-1.56695">
        <ele>15</ele>
        <time>2023-11-03T16:00:15Z</time>
      </trkpt>
      <trkpt lat="47.29237" lon="-1.56664">
        <ele>16</ele>
        <time>2023-11-03T16:00:44Z</time>
      </trkpt>
      <trkpt lat="47.29223" lon="-1.56643">
        <ele>18</ele>
        <time>2023-11-03T16:01:11Z</time>
      </trkpt>
      <trkpt lat="47.29205" lon="-1.56638">
        <ele>18</ele>
        <time>2023-11-03T16:01:35Z</time>
      </trkpt>
      <trkpt lat="47.29183" lon="-1.56639">
        <ele>18</ele>
        <time>2023-11-03T16:02:04Z</time>
      </trkpt>
      <trkpt lat="47.29162" lon="-1.56638">
        <ele>18</ele>
        <time>2023-11-03T16:02:32Z</time>
      </trkpt>
      <trkpt lat="47.29143" lon="-1.56634">
        <ele>18</ele>
        <time>2023-11-03T16:02:58Z</time>
      </trkpt>
      <trkpt lat="47.29114" lon="-1.56598">
        <ele>20</ele>
        <time>2023-11-03T16:03:49Z</time>
      </trkpt>
      <trkpt lat="47.29101" lon="-1.56579">
        <ele>21</ele>
        <time>2023-11-03T16:04:13Z</time>
      </trkpt>
      <trkpt lat="47.29096" lon="-1.56551">
        <ele>23</ele>
        <time>2023-11-03T16:04:39Z</time>
      </trkpt>
      <trkpt lat="47.29086" lon="-1.56525">
        <ele>26</ele>
        <time>2023-11-03T16:05:06Z</time>
      </trkpt>
      <trkpt lat="47.29078" lon="-1.565">
        <ele>28</ele>
        <time>2023-11-03T16:05:31Z</time>
      </trkpt>
      <trkpt lat="47.29063" lon="-1.5648">
        <ele>29</ele>
        <time>2023-11-03T16:05:58Z</time>
      </trkpt>
      <trkpt lat="47.2905" lon="-1.56462">
        <ele>30</ele>
        <time>2023-11-03T16:06:22Z</time>
      </trkpt>
      <trkpt lat="47.29029" lon="-1.56458">
        <ele>31</ele>
        <time>2023-11-03T16:06:50Z</time>
      </trkpt>
      <trkpt lat="47.29011" lon="-1.56454">
        <ele>31</ele>
        <time>2023-11-03T16:07:15Z</time>
      </trkpt>
      <trkpt lat="47.28991" lon="-1.56454">
        <ele>31</ele>
        <time>2023-11-03T16:07:41Z</time>
      </trkpt>
      <trkpt lat="47.2897" lon="-1.56458">
        <ele>31</ele>
        <time>2023-11-03T16:08:10Z</time>
      </trkpt>
      <trkpt lat="47.28953" lon="-1.5647">
        <ele>31</ele>
        <time>2023-11-03T16:08:35Z</time>
      </trkpt>
      <trkpt lat="47.28928" lon="-1.56485">
        <ele>31</ele>
        <time>2023-11-03T16:09:11Z</time>
      </trkpt>
      <trkpt lat="47.28899" lon="-1.56519">
        <ele>28</ele>
        <time>2023-11-03T16:10:00Z</time>
      </trkpt>
      <trkpt lat="47.28884" lon="-1.56536">
        <ele>26</ele>
        <time>2023-11-03T16:10:25Z</time>
      </trkpt>
      <trkpt lat="47.28875" lon="-1.56563">
        <ele>23</ele>
        <time>2023-11-03T16:10:53Z</time>
      </trkpt>
      <trkpt lat="47.28872" lon="-1.56591">
        <ele>21</ele>
        <time>2023-11-03T16:11:18Z</time>
      </trkpt>
      <trkpt lat="47.28864" lon="-1.56618">
        <ele>19</ele>
        <time>2023-11-03T16:11:45Z</time>
      </trkpt>
      <trkpt lat="47.28857" lon="-1.56648">
        <ele>17</ele>
        <time>2023-11-03T16:12:14Z</time>
      </trkpt>
      <trkpt lat="47.28853" lon="-1.56677">
        <ele>16</ele>
        <time>2023-11-03T16:12:41Z</time>
      </trkpt>
      <trkpt lat="47.28849" lon="-1.56709">
        <ele>16</ele>
        <time>2023-11-03T16:13:10Z</time>
      </trkpt>
      <trkpt lat="47.28847" lon="-1.56742">
        <ele>15</ele>
        <time>2023-11-03T16:13:40Z</time>
      </trkpt>
      <trkpt lat="47.28828" lon="-1.56757">
        <ele>15</ele>
        <time>2023-11-03T16:14:09Z</time>
      </trkpt>
      <trkpt lat="47.28806" lon="-1.56761">
        <ele>14</ele>
        <time>2023-11-03T16:14:38Z</time>
      </trkpt>
      <trkpt lat="47.28785" lon="-1.56757">
        <ele>14</ele>
        <time>2023-11-03T16:15:07Z</time>
      </trkpt>
      <trkpt lat="47.28744" lon="-1.56738">
        <ele>12</ele>
        <time>2023-11-03T16:16:04Z</time>
      </trkpt>
      <trkpt lat="47.28723" lon="-1.5673">
        <ele>12</ele>
        <time>2023-11-03T16:16:33Z</time>
      </trkpt>
      <trkpt lat="47.28705" lon="-1.56716">
        <ele>12</ele>
        <time>2023-11-03T16:17:00Z</time>
      </trkpt>
      <trkpt lat="47.28691" lon="-1.56698">
        <ele>13</ele>
        <time>2023-11-03T16:17:25Z</time>
      </trkpt>
      <trkpt lat="47.28673" lon="-1.56684">
        <ele>13</ele>
        <time>2023-11-03T16:17:52Z</time>
      </trkpt>
      <trkpt lat="47.28652" lon="-1.56681">
        <ele>13</ele>
        <time>2023-11-03T16:18:20Z</time>
      </trkpt>
      <trkpt lat="47.28633" lon="-1.56676">
        <ele>13</ele>
        <time>2023-11-03T16:18:46Z</time>
      </trkpt>
      <trkpt lat="47.28614" lon="-1.56672">
        <ele>12</ele>
        <time>2023-11-03T16:19:11Z</time>
      </trkpt>
      <trkpt lat="47.28594" lon="-1.5666">
        <ele>12</ele>
        <time>2023-11-03T16:19:40Z</time>
      </trkpt>
      <trkpt lat="47.28577" lon="-1.56646">
        <ele>12</ele>
        <time>2023-11-03T16:20:06Z</time>
      </trkpt>
      <trkpt lat="47.28563" lon="-1.56618">
        <ele>14</ele>
        <time>2023-11-03T16:20:38Z</time>
      </trkpt>
      <trkpt lat="47.28553" lon="-1.56592">
        <ele>14</ele>
        <time>2023-11-03T16:21:05Z</time>
      </trkpt>
      <trkpt lat="47.28556" lon="-1.56563">
        <ele>17</ele>
        <time>2023-11-03T16:21:31Z</time>
      </trkpt>
      <trkpt lat="47.28551" lon="-1.56536">
        <ele>19</ele>
        <time>2023-11-03T16:21:57Z</time>
      </trkpt>
      <trkpt lat="47.28544" lon="-1.56505">
        <ele>22</ele>
        <time>2023-11-03T16:22:26Z</time>
      </trkpt>
      <trkpt lat="47.28528" lon="-1.56488">
        <ele>23</ele>
        <time>2023-11-03T16:22:53Z</time>
      </trkpt>
      <trkpt lat="47.28507" lon="-1.56481">
        <ele>22</ele>
        <time>2023-11-03T16:23:21Z</time>
      </trkpt>
      <trkpt lat="47.28486" lon="-1.56477">
        <ele>22</ele>
        <time>2023-11-03T16:23:50Z</time>
      </trkpt>
      <trkpt lat="47.28468" lon="-1.56486">
        <ele>20</ele>
        <time>2023-11-03T16:24:15Z</time>
      </trkpt>
      <trkpt lat="47.2845" lon="-1.5649">
        <ele>19</ele>
        <time>2023-11-03T16:24:39Z</time>
      </trkpt>
      <trkpt lat="47.28427" lon="-1.56494">
        <ele>17</ele>
        <time>2023-11-03T16:25:10Z</time>
      </trkpt>
      <trkpt lat="47.28406" lon="-1.56487">
        <ele>17</ele>
        <time>2023-11-03T16:25:39Z</time>
      </trkpt>
      <trkpt lat="47.28388" lon="-1.56481">
        <ele>18</ele>
        <time>2023-11-03T16:26:04Z</time>
      </trkpt>
      <trkpt lat="47.28367" lon="-1.56489">
        <ele>17</ele>
        <time>2023-11-03T16:26:32Z</time>
      </trkpt>
      <trkpt lat="47.28348" lon="-1.56484">
        <ele>17</ele>
        <time>2023-11-03T16:26:58Z</time>
      </trkpt>
      <trkpt lat="47.28326" lon="-1.56481">
        <ele>17</ele>
        <time>2023-11-03T16:27:28Z</time>
      </trkpt>
      <trkpt lat="47.28307" lon="-1.56483">
        <ele>18</ele>
        <time>2023-11-03T16:27:53Z</time>
      </trkpt>
      <trkpt lat="47.28284" lon="-1.5649">
        <ele>18</ele>
        <time>2023-11-03T16:28:24Z</time>
      </trkpt>
      <trkpt lat="47.28263" lon="-1.5649">
        <ele>18</ele>
        <time>2023-11-03T16:28:52Z</time>
      </trkpt>
      <trkpt lat="47.28243" lon="-1.56498">
        <ele>19</ele>
        <time>2023-11-03T16:29:20Z</time>
      </trkpt>
      <trkpt lat="47.28226" lon="-1.56509">
        <ele>20</ele>
        <time>2023-11-03T16:29:45Z</time>
      </trkpt>
      <trkpt lat="47.28211" lon="-1.56532">
        <ele>20</ele>
        <time>2023-11-03T16:30:14Z</time>
      </trkpt>
      <trkpt lat="47.28198" lon="-1.56556">
        <ele>18</ele>
        <time>2023-11-03T16:30:42Z</time>
      </trkpt>
      <trkpt lat="47.2818" lon="-1.56569">
        <ele>19</ele>
        <time>2023-11-03T16:31:08Z</time>
      </trkpt>
      <trkpt lat="47.28161" lon="-1.56582">
        <ele>18</ele>
        <time>2023-11-03T16:31:36Z</time>
      </trkpt>
      <trkpt lat="47.28141" lon="-1.56593">
        <ele>19</ele>
        <time>2023-11-03T16:32:05Z</time>
      </trkpt>
      <trkpt lat="47.28124" lon="-1.56605">
        <ele>19</ele>
        <time>2023-11-03T16:32:30Z</time>
      </trkpt>
      <trkpt lat="47.28105" lon="-1.56615">
        <ele>19</ele>
        <time>2023-11-03T16:32:57Z</time>
      </trkpt>
      <trkpt lat="47.28083" lon="-1.56621">
        <ele>19</ele>
        <time>2023-11-03T16:33:27Z</time>
      </trkpt>
      <trkpt lat="47.28043" lon="-1.56625">
        <ele>19</ele>
        <time>2023-11-03T16:34:20Z</time>
      </trkpt>
      <trkpt lat="47.28025" lon="-1.56626">
        <ele>18</ele>
        <time>2023-11-03T16:34:44Z</time>
      </trkpt>
      <trkpt lat="47.28007" lon="-1.56618">
        <ele>19</ele>
        <time>2023-11-03T16:35:09Z</time>
      </trkpt>
      <trkpt lat="47.2799" lon="-1.56606">
        <ele>19</ele>
        <time>2023-11-03T16:35:35Z</time>
      </trkpt>
      <trkpt lat="47.27969" lon="-1.56612">
        <ele>18</ele>
        <time>2023-11-03T16:36:03Z</time>
      </trkpt>
      <trkpt lat="47.27949" lon="-1.56614">
        <ele>17</ele>
        <time>2023-11-03T16:36:30Z</time>
      </trkpt>
      <trkpt lat="47.27933" lon="-1.56597">
        <ele>17</ele>
        <time>2023-11-03T16:36:56Z</time>
      </trkpt>
      <trkpt lat="47.27912" lon="-1.56593">
        <ele>16</ele>
        <time>2023-11-03T16:37:24Z</time>
      </trkpt>
      <trkpt lat="47.27894" lon="-1.56581">
        <ele>14</ele>
        <time>2023-11-03T16:37:51Z</time>
      </trkpt>
      <trkpt lat="47.27878" lon="-1.56566">
        <ele>13</ele>
        <time>2023-11-03T16:38:16Z</time>
      </trkpt>
      <trkpt lat="47.27864" lon="-1.56543">
        <ele>13</ele>
        <time>2023-11-03T16:38:44Z</time>
      </trkpt>
      <trkpt lat="47.27858" lon="-1.56512">
        <ele>14</ele>
        <time>2023-11-03T16:39:13Z</time>
      </trkpt>
      <trkpt lat="47.27861" lon="-1.56485">
        <ele>15</ele>
        <time>2023-11-03T16:39:38Z</time>
      </trkpt>
      <trkpt lat="47.27871" lon="-1.56459">
        <ele>18</ele>
        <time>2023-11-03T16:40:05Z</time>
      </trkpt>
      <trkpt lat="47.27883" lon="-1.56432">
        <ele>21</ele>
        <time>2023-11-03T16:40:34Z</time>
      </trkpt>
      <trkpt lat="47.27889" lon="-1.56404">
        <ele>24</ele>
        <time>2023-11-03T16:41:01Z</time>
      </trkpt>
      <trkpt lat="47.27907" lon="-1.56391">
        <ele>26</ele>
        <time>2023-11-03T16:41:28Z</time>
      </trkpt>
      <trkpt lat="47.27925" lon="-1.56383">
        <ele>28</ele>
        <time>2023-11-03T16:41:53Z</time>
      </trkpt>
      <trkpt lat="47.27929" lon="-1.56356">
        <ele>29</ele>
        <time>2023-11-03T16:42:18Z</time>
      </trkpt>
      <trkpt lat="47.27923" lon="-1.56329">
        <ele>30</ele>
        <time>2023-11-03T16:42:43Z</time>
      </trkpt>
      <trkpt lat="47.27932" lon="-1.56306">
        <ele>31</ele>
        <time>2023-11-03T16:43:07Z</time>
      </trkpt>
      <trkpt lat="47.2795" lon="-1.56292">
        <ele>32</ele>
        <time>2023-11-03T16:43:35Z</time>
      </trkpt>
      <trkpt lat="47.27955" lon="-1.56266">
        <ele>33</ele>
        <time>2023-11-03T16:43:59Z</time>
      </trkpt>
      <trkpt lat="47.27937" lon="-1.56253">
        <ele>34</ele>
        <time>2023-11-03T16:44:26Z</time>
      </trkpt>
      <trkpt lat="47.27926" lon="-1.5623">
        <ele>35</ele>
        <time>2023-11-03T16:44:51Z</time>
      </trkpt>
      <trkpt lat="47.2793" lon="-1.56194">
        <ele>36</ele>
        <time>2023-11-03T16:45:24Z</time>
      </trkpt>
      <trkpt lat="47.27934" lon="-1.56167">
        <ele>37</ele>
        <time>2023-11-03T16:45:49Z</time>
      </trkpt>
      <trkpt lat="47.27939" lon="-1.56138">
        <ele>37</ele>
        <time>2023-11-03T16:46:16Z</time>
      </trkpt>
      <trkpt lat="47.2794" lon="-1.56108">
        <ele>38</ele>
        <time>2023-11-03T16:46:44Z</time>
      </trkpt>
      <trkpt lat="47.27943" lon="-1.56079">
        <ele>38</ele>
        <time>2023-11-03T16:47:10Z</time>
      </trkpt>
      <trkpt lat="47.27948" lon="-1.56052">
        <ele>38</ele>
        <time>2023-11-03T16:47:36Z</time>
      </trkpt>
      <trkpt lat="47.27951" lon="-1.56026">
        <ele>38</ele>
        <time>2023-11-03T16:47:59Z</time>
      </trkpt>
      <trkpt lat="47.27955" lon="-1.55996">
        <ele>37</ele>
        <time>2023-11-03T16:48:27Z</time>
      </trkpt>
      <trkpt lat="47.27958" lon="-1.55964">
        <ele>37</ele>
        <time>2023-11-03T16:48:56Z</time>
      </trkpt>
      <trkpt lat="47.27958" lon="-1.55936">
        <ele>36</ele>
        <time>2023-11-03T16:49:22Z</time>
      </trkpt>
      <trkpt lat="47.27959" lon="-1.55906">
        <ele>36</ele>
        <time>2023-11-03T16:49:49Z</time>
      </trkpt>
      <trkpt lat="47.27969" lon="-1.55812">
        <ele>38</ele>
        <time>2023-11-03T16:51:15Z</time>
      </trkpt>
      <trkpt lat="47.2797" lon="-1.55783">
        <ele>38</ele>
        <time>2023-11-03T16:51:41Z</time>
      </trkpt>
      <trkpt lat="47.27974" lon="-1.55755">
        <ele>39</ele>
        <time>2023-11-03T16:52:07Z</time>
      </trkpt>
      <trkpt lat="47.27978" lon="-1.55722">
        <ele>40</ele>
        <time>2023-11-03T16:52:38Z</time>
      </trkpt>
      <trkpt lat="47.27965" lon="-1.557">
        <ele>40</ele>
        <time>2023-11-03T16:53:04Z</time>
      </trkpt>
      <trkpt lat="47.27964" lon="-1.55672">
        <ele>40</ele>
        <time>2023-11-03T16:53:29Z</time>
      </trkpt>
      <trkpt lat="47.27983" lon="-1.5568">
        <ele>41</ele>
        <time>2023-11-03T16:53:56Z</time>
        <extensions>
          <visugpx:TrkExtension xmlns:visugpx="https://www.visugpx.com/editgpx/">
            <visugpx:node>1</visugpx:node>
            </visugpx:TrkExtension>
        </extensions>
      </trkpt>
    </trkseg>
  </trk>
</gpx>